Time;durP1;ratioP1;P1;durP2;ratioP2;P2;SDS_P1;SDS_P2;PMS_P1;PMS_P2;Temp;Humidity;BMP_temperature;BMP_pressure;BME280_temperature;BME280_humidity;BME280_pressure;Samples;Min_cycle;Max_cycle;Signal;HPM_P1;HPM_P2
2022/10/03 00:01:16;;;;;;;1.50;0.70;;;12.90;99.90;;;;;;5035922;28;20021;-71
2022/10/03 00:04:06;;;;;;;0.90;0.70;;;12.90;99.90;;;;;;5036119;28;20112;-71
2022/10/03 00:06:54;;;;;;;2.33;0.70;;;12.90;99.90;;;;;;5035478;28;20036;-70
2022/10/03 00:09:39;;;;;;;1.05;0.73;;;12.90;99.90;;;;;;5035164;28;20029;-70
2022/10/03 00:12:20;;;;;;;3.95;0.80;;;12.90;99.90;;;;;;5035807;28;20030;-70
2022/10/03 00:15:13;;;;;;;1.55;0.70;;;12.80;99.90;;;;;;5034588;28;20034;-70
2022/10/03 00:18:01;;;;;;;1.77;0.75;;;12.80;99.90;;;;;;5035396;28;20037;-70
2022/10/03 00:20:51;;;;;;;0.88;0.68;;;12.80;99.90;;;;;;5024011;28;20037;-71
2022/10/03 00:23:35;;;;;;;0.57;0.52;;;12.80;99.90;;;;;;5035346;28;20120;-71
2022/10/03 00:26:26;;;;;;;0.98;0.70;;;12.80;99.90;;;;;;5035711;28;20454;-70
2022/10/03 00:29:17;;;;;;;5.35;1.17;;;12.80;99.90;;;;;;5035799;28;20029;-71
2022/10/03 00:32:11;;;;;;;5.20;1.00;;;12.80;99.90;;;;;;5035081;28;20394;-70
2022/10/03 00:35:22;;;;;;;1.00;0.70;;;12.80;99.90;;;;;;5034797;28;20042;-70
2022/10/03 00:38:02;;;;;;;2.50;1.00;;;12.80;99.90;;;;;;5029366;28;20037;-71
2022/10/03 00:40:50;;;;;;;1.50;0.77;;;12.80;99.90;;;;;;5035005;28;20037;-70
2022/10/03 00:43:50;;;;;;;1.13;0.90;;;12.80;99.90;;;;;;5034960;28;20513;-70
2022/10/03 00:46:25;;;;;;;0.98;0.77;;;12.80;99.90;;;;;;5035079;28;20021;-70
2022/10/03 00:49:03;;;;;;;1.00;0.80;;;12.70;99.90;;;;;;5034972;28;20043;-70
2022/10/03 00:51:47;;;;;;;2.10;0.90;;;12.80;99.90;;;;;;5033495;28;20026;-71
2022/10/03 00:54:24;;;;;;;2.97;0.80;;;12.80;99.90;;;;;;5034831;28;20029;-71
2022/10/03 00:57:05;;;;;;;1.55;0.90;;;12.80;99.90;;;;;;5034854;28;20030;-71
2022/10/03 00:59:52;;;;;;;1.52;0.80;;;12.70;99.90;;;;;;5034128;28;20148;-71
2022/10/03 01:02:33;;;;;;;1.48;0.80;;;12.70;99.90;;;;;;5036550;28;20116;-70
2022/10/03 01:05:32;;;;;;;2.25;0.80;;;12.70;99.90;;;;;;5054648;28;20032;-70
2022/10/03 01:08:34;;;;;;;0.85;0.73;;;12.70;99.90;;;;;;5054766;28;20075;-71
2022/10/03 01:11:02;;;;;;;;;;;12.70;99.90;;;;;;5055051;28;20025;-72
2022/10/03 01:13:58;;;;;;;2.08;0.70;;;12.70;99.90;;;;;;5053850;28;20316;-72
2022/10/03 01:16:57;;;;;;;2.10;1.02;;;12.70;99.90;;;;;;5053990;28;20044;-71
2022/10/03 01:19:46;;;;;;;3.35;0.80;;;12.70;99.90;;;;;;5053961;28;20029;-72
2022/10/03 01:22:31;;;;;;;0.80;0.70;;;12.70;99.90;;;;;;5054455;28;20029;-71
2022/10/03 01:25:01;;;;;;;0.98;0.88;;;12.70;99.90;;;;;;5054172;28;20055;-71
2022/10/03 01:30:37;;;;;;;1.20;1.10;;;12.70;99.90;;;;;;5053299;28;20040;-72
2022/10/03 01:33:14;;;;;;;2.78;0.90;;;12.70;99.90;;;;;;5054234;28;20044;-71
2022/10/03 01:36:06;;;;;;;3.25;1.13;;;12.70;99.90;;;;;;5053666;28;20393;-71
2022/10/03 01:38:54;;;;;;;2.70;0.90;;;12.70;99.90;;;;;;5053642;28;20118;-71
2022/10/03 01:42:00;;;;;;;0.98;0.65;;;12.70;99.90;;;;;;5053759;28;20021;-71
2022/10/03 01:44:25;;;;;;;1.00;0.73;;;12.70;99.90;;;;;;5031113;28;20033;-71
2022/10/03 01:47:00;;;;;;;1.70;0.98;;;12.70;99.90;;;;;;5049878;28;20538;-71
2022/10/03 01:49:46;;;;;;;1.98;0.70;;;12.70;99.90;;;;;;5053667;28;20035;-71
2022/10/03 01:52:19;;;;;;;0.70;0.70;;;12.70;99.90;;;;;;5053820;28;20036;-71
2022/10/03 01:55:09;;;;;;;4.00;1.05;;;12.70;99.90;;;;;;5053393;28;20545;-70
2022/10/03 01:57:59;;;;;;;3.65;0.93;;;12.70;99.90;;;;;;5053298;28;20109;-70
2022/10/03 02:00:32;;;;;;;1.20;0.93;;;12.70;99.90;;;;;;5052952;28;20461;-71
2022/10/03 02:03:13;;;;;;;1.15;0.98;;;12.70;99.90;;;;;;5053389;28;20378;-71
2022/10/03 02:05:47;;;;;;;0.82;0.82;;;12.70;99.90;;;;;;5052503;28;20025;-72
2022/10/03 02:08:15;;;;;;;2.53;1.10;;;12.70;99.90;;;;;;5053534;28;20025;-72
2022/10/03 02:11:07;;;;;;;1.85;1.10;;;12.70;99.90;;;;;;5053068;28;20036;-72
2022/10/03 02:14:00;;;;;;;3.58;1.10;;;12.70;99.90;;;;;;5053067;28;20029;-72
2022/10/03 02:16:56;;;;;;;1.48;1.10;;;12.70;99.90;;;;;;5051871;28;20099;-72
2022/10/03 02:19:24;;;;;;;4.30;1.13;;;12.70;99.90;;;;;;5053298;28;20098;-72
2022/10/03 02:21:53;;;;;;;3.92;1.30;;;12.70;99.90;;;;;;5053095;28;20027;-72
2022/10/03 02:24:27;;;;;;;1.58;0.90;;;12.70;99.90;;;;;;5053249;28;20028;-71
2022/10/03 02:27:14;;;;;;;1.52;0.95;;;12.70;99.90;;;;;;5052973;28;20400;-71
2022/10/03 02:30:01;;;;;;;3.33;1.00;;;12.70;99.90;;;;;;5052756;28;20474;-70
2022/10/03 02:32:47;;;;;;;1.83;1.05;;;12.80;99.90;;;;;;5052989;28;20045;-74
2022/10/03 02:35:34;;;;;;;2.20;1.10;;;12.80;99.90;;;;;;5053052;28;20145;-71
2022/10/03 02:38:05;;;;;;;1.15;0.85;;;12.80;99.90;;;;;;5053188;28;20152;-70
2022/10/03 02:40:37;;;;;;;;;;;12.80;99.90;;;;;;5052955;28;20362;-72
2022/10/03 02:43:18;;;;;;;;;;;12.80;99.90;;;;;;5053263;28;19999;-71
2022/10/03 02:46:24;;;;;;;0.70;0.70;;;12.80;99.90;;;;;;5052484;28;19913;-71
2022/10/03 02:49:09;;;;;;;1.40;1.00;;;12.80;99.90;;;;;;5052252;28;20029;-72
2022/10/03 02:51:46;;;;;;;2.55;1.20;;;12.80;99.90;;;;;;5052404;28;20028;-72
2022/10/03 02:54:39;;;;;;;3.25;1.40;;;12.80;99.90;;;;;;5052456;28;20029;-71
2022/10/03 02:57:29;;;;;;;5.20;1.40;;;12.80;99.90;;;;;;5052687;28;20051;-71
2022/10/03 03:00:30;;;;;;;1.73;0.90;;;12.90;99.90;;;;;;5052712;28;20029;-71
2022/10/03 03:03:29;;;;;;;5.15;1.20;;;12.90;99.90;;;;;;5051450;28;20032;-71
2022/10/03 03:06:22;;;;;;;3.47;1.25;;;12.90;99.90;;;;;;5029160;28;20091;-72
2022/10/03 03:09:22;;;;;;;3.00;1.10;;;12.80;99.90;;;;;;5052216;28;20025;-71
2022/10/03 03:11:58;;;;;;;1.90;1.10;;;12.80;99.90;;;;;;5052123;28;20060;-72
2022/10/03 03:14:42;;;;;;;2.90;0.95;;;12.80;99.90;;;;;;5054959;28;20079;-70
2022/10/03 03:17:43;;;;;;;1.67;0.98;;;12.80;99.90;;;;;;5055415;28;20114;-70
2022/10/03 03:20:37;;;;;;;2.35;1.05;;;12.80;99.90;;;;;;5057016;28;20036;-71
2022/10/03 03:23:25;;;;;;;2.28;1.17;;;12.80;99.90;;;;;;5035643;28;20032;-70
2022/10/03 03:26:09;;;;;;;3.50;1.20;;;12.80;99.90;;;;;;5056173;28;20473;-71
2022/10/03 03:28:56;;;;;;;1.80;1.20;;;12.80;99.90;;;;;;5055726;28;20040;-71
2022/10/03 03:31:43;;;;;;;3.50;1.13;;;12.80;99.90;;;;;;5056443;28;20060;-70
2022/10/03 03:34:21;;;;;;;5.15;1.10;;;12.80;99.90;;;;;;5056281;28;20033;-71
2022/10/03 03:36:57;;;;;;;2.92;1.20;;;12.80;99.90;;;;;;5055994;28;20094;-70
2022/10/03 03:39:53;;;;;;;5.47;1.25;;;12.80;99.90;;;;;;5056423;28;20112;-70
2022/10/03 03:42:31;;;;;;;0.82;0.77;;;12.80;99.90;;;;;;5056401;28;20500;-71
2022/10/03 03:44:57;;;;;;;7.97;1.70;;;12.80;99.90;;;;;;5055781;28;20050;-71
2022/10/03 03:47:32;;;;;;;2.88;1.10;;;12.80;99.90;;;;;;5055865;28;20029;-70
2022/10/03 03:50:16;;;;;;;3.45;1.10;;;12.80;99.90;;;;;;5056250;28;20025;-71
2022/10/03 03:53:19;;;;;;;2.55;1.08;;;12.80;99.90;;;;;;5055544;28;20029;-71
2022/10/03 03:55:47;;;;;;;2.95;1.27;;;12.80;99.90;;;;;;5055498;28;20044;-71
2022/10/03 03:58:59;;;;;;;6.55;1.20;;;12.80;99.90;;;;;;5055868;28;20053;-71
2022/10/03 04:02:06;;;;;;;2.05;1.10;;;12.80;99.90;;;;;;5055938;28;20354;-70
2022/10/03 04:04:59;;;;;;;4.07;1.20;;;12.80;99.90;;;;;;5055837;28;20032;-71
2022/10/03 04:07:25;;;;;;;1.60;0.88;;;12.80;99.90;;;;;;5055840;28;20021;-70
2022/10/03 04:09:51;;;;;;;2.55;1.42;;;12.80;99.90;;;;;;5052877;28;20021;-71
2022/10/03 04:12:35;;;;;;;3.35;1.00;;;12.80;99.90;;;;;;5055438;28;20021;-71
2022/10/03 04:15:16;;;;;;;1.10;0.90;;;12.80;99.90;;;;;;5055406;28;20465;-71
2022/10/03 04:20:50;;;;;;;3.25;1.10;;;12.70;99.90;;;;;;5055040;28;20083;-71
2022/10/03 04:23:40;;;;;;;4.97;1.17;;;12.70;99.90;;;;;;5055785;28;20083;-70
2022/10/03 04:26:24;;;;;;;3.80;1.50;;;12.70;99.90;;;;;;5055582;28;20039;-70
2022/10/03 04:29:05;;;;;;;1.55;1.25;;;12.70;99.90;;;;;;5055017;28;20025;-70
2022/10/03 04:31:40;;;;;;;2.38;1.17;;;12.60;99.90;;;;;;5055322;28;20045;-70
2022/10/03 04:34:54;;;;;;;6.35;1.10;;;12.60;99.90;;;;;;5055291;28;20074;-71
2022/10/03 04:37:40;;;;;;;1.83;0.95;;;12.60;99.90;;;;;;5035363;28;20534;-70
2022/10/03 04:40:16;;;;;;;3.05;1.55;;;12.60;99.90;;;;;;5055420;28;20029;-71
2022/10/03 04:43:14;;;;;;;5.88;1.05;;;12.60;99.90;;;;;;5054939;28;20026;-71
2022/10/03 04:46:25;;;;;;;1.67;1.40;;;12.60;99.90;;;;;;5054604;28;20526;-72
2022/10/03 04:49:13;;;;;;;2.53;1.17;;;12.60;99.90;;;;;;5044171;28;20469;-70
2022/10/03 04:51:56;;;;;;;2.08;1.05;;;12.50;99.90;;;;;;5054573;28;20028;-71
2022/10/03 04:54:34;;;;;;;3.20;1.20;;;12.50;99.90;;;;;;5054476;28;20033;-71
2022/10/03 04:57:09;;;;;;;4.78;0.95;;;12.40;99.90;;;;;;5054512;28;20036;-70
2022/10/03 04:59:45;;;;;;;2.30;1.20;;;12.40;99.90;;;;;;5055043;28;20025;-71
2022/10/03 05:02:26;;;;;;;2.25;1.10;;;12.40;99.90;;;;;;5054764;28;20382;-71
2022/10/03 05:05:13;;;;;;;1.77;0.90;;;12.40;99.90;;;;;;5054481;28;20078;-70
2022/10/03 05:07:59;;;;;;;2.15;1.17;;;12.40;99.90;;;;;;5054442;28;20067;-70
2022/10/03 05:10:42;;;;;;;4.10;1.00;;;12.50;99.90;;;;;;5054722;28;20036;-72
2022/10/03 05:13:12;;;;;;;4.55;0.95;;;12.50;99.90;;;;;;5054299;28;20075;-70
2022/10/03 05:15:51;;;;;;;5.20;1.50;;;12.50;99.90;;;;;;5054167;28;20029;-70
2022/10/03 05:18:34;;;;;;;4.00;1.30;;;12.50;99.90;;;;;;5054706;28;20070;-70
2022/10/03 05:21:19;;;;;;;3.15;1.20;;;12.50;99.90;;;;;;5053760;28;20037;-70
2022/10/03 05:24:06;;;;;;;2.30;1.00;;;12.50;99.90;;;;;;5053882;28;20029;-71
2022/10/03 05:26:57;;;;;;;4.25;1.17;;;12.50;99.90;;;;;;5054197;28;20342;-71
2022/10/03 05:29:33;;;;;;;;;;;12.50;99.90;;;;;;5054579;28;20155;-71
2022/10/03 05:32:14;;;;;;;2.40;1.10;;;12.60;99.90;;;;;;5053415;28;20051;-70
2022/10/03 05:34:58;;;;;;;2.72;1.20;;;12.60;99.90;;;;;;5053760;28;20029;-72
2022/10/03 05:37:42;;;;;;;4.03;1.50;;;12.60;99.90;;;;;;5053494;28;20040;-70
2022/10/03 05:40:17;;;;;;;1.85;0.77;;;12.70;99.90;;;;;;5053955;28;20032;-71
2022/10/03 05:42:52;;;;;;;8.75;1.13;;;12.70;99.90;;;;;;5053413;28;20021;-70
2022/10/03 05:45:45;;;;;;;2.33;1.20;;;12.70;99.90;;;;;;5053582;28;20469;-70
2022/10/03 05:48:14;;;;;;;5.28;1.23;;;12.80;99.90;;;;;;5052729;28;20040;-72
2022/10/03 05:50:58;;;;;;;3.28;1.52;;;12.80;99.90;;;;;;5053575;28;20032;-71
2022/10/03 05:53:24;;;;;;;5.95;1.23;;;12.90;99.90;;;;;;5053607;28;20021;-71
2022/10/03 05:56:22;;;;;;;3.15;1.00;;;12.90;99.90;;;;;;5052840;28;20089;-71
2022/10/03 05:59:06;;;;;;;5.40;1.40;;;12.90;99.90;;;;;;5036669;28;20048;-71
2022/10/03 06:01:56;;;;;;;3.08;1.23;;;13.00;99.90;;;;;;5053549;28;20025;-71
2022/10/03 06:04:33;;;;;;;4.18;1.20;;;13.00;99.90;;;;;;5053581;28;20032;-71
2022/10/03 06:07:17;;;;;;;2.05;0.88;;;13.00;99.90;;;;;;5052320;28;20469;-71
2022/10/03 06:10:13;;;;;;;4.65;1.02;;;13.20;99.90;;;;;;5052623;28;20029;-72
2022/10/03 06:13:22;;;;;;;3.67;1.00;;;13.20;99.90;;;;;;5053392;28;20025;-71
2022/10/03 06:16:15;;;;;;;5.72;1.42;;;13.20;99.80;;;;;;5051891;28;20048;-70
2022/10/03 06:18:55;;;;;;;4.10;1.10;;;13.30;99.10;;;;;;5053218;28;20025;-71
2022/10/03 06:21:41;;;;;;;2.22;1.38;;;13.40;98.90;;;;;;5053259;28;20021;-71
2022/10/03 06:24:16;;;;;;;2.55;0.75;;;13.40;98.10;;;;;;5052095;28;20512;-70
2022/10/03 06:27:04;;;;;;;3.53;0.80;;;13.50;97.70;;;;;;5053179;28;20032;-70
2022/10/03 06:29:57;;;;;;;3.50;1.10;;;13.60;97.60;;;;;;5052767;28;20025;-71
2022/10/03 06:32:47;;;;;;;3.15;1.33;;;13.50;96.90;;;;;;5052580;28;20049;-71
2022/10/03 06:35:44;;;;;;;7.07;1.67;;;13.60;96.30;;;;;;5052796;28;20067;-70
2022/10/03 06:38:41;;;;;;;2.50;1.20;;;13.50;96.00;;;;;;5052594;28;20538;-70
2022/10/03 06:41:25;;;;;;;6.32;1.05;;;13.50;95.90;;;;;;5052427;28;20374;-71
2022/10/03 06:44:12;;;;;;;7.22;0.90;;;13.50;95.70;;;;;;5052516;28;20036;-71
2022/10/03 06:47:15;;;;;;;6.07;1.10;;;13.50;96.00;;;;;;5052261;28;20548;-71
2022/10/03 06:49:59;;;;;;;4.05;1.60;;;13.60;95.70;;;;;;5050636;28;20033;-72
2022/10/03 06:52:43;;;;;;;2.83;1.00;;;13.70;95.10;;;;;;5052535;28;20079;-72
2022/10/03 06:55:20;;;;;;;3.05;0.95;;;13.90;95.10;;;;;;5052230;28;20090;-72
2022/10/03 06:57:58;;;;;;;4.55;1.20;;;14.00;94.50;;;;;;5052464;28;20036;-72
2022/10/03 07:00:33;;;;;;;3.72;0.75;;;14.00;93.90;;;;;;5052057;28;20036;-72
2022/10/03 07:03:20;;;;;;;2.60;0.65;;;14.00;93.20;;;;;;5052040;28;20029;-70
2022/10/03 07:05:58;;;;;;;3.60;1.20;;;14.00;92.90;;;;;;5052501;28;20036;-71
2022/10/03 07:08:29;;;;;;;6.93;1.00;;;14.00;92.80;;;;;;5052457;28;20028;-70
2022/10/03 07:11:27;;;;;;;3.08;1.08;;;14.10;92.60;;;;;;5052092;28;20029;-70
2022/10/03 07:14:34;;;;;;;3.65;0.75;;;14.30;92.30;;;;;;5052300;28;20090;-71
2022/10/03 07:17:21;;;;;;;6.65;1.23;;;14.50;91.60;;;;;;5032445;28;20456;-71
2022/10/03 07:19:51;;;;;;;5.50;1.13;;;14.80;91.10;;;;;;5054415;28;20017;-71
2022/10/03 07:22:29;;;;;;;7.18;1.25;;;15.20;90.20;;;;;;5052713;28;20024;-70
2022/10/03 07:25:23;;;;;;;2.60;0.85;;;15.60;89.60;;;;;;5052323;28;20029;-71
2022/10/03 07:28:26;;;;;;;6.03;1.00;;;15.80;87.00;;;;;;5052386;28;20494;-73
2022/10/03 07:31:27;;;;;;;2.55;0.82;;;15.90;84.40;;;;;;5051828;28;20049;-70
2022/10/03 07:34:02;;;;;;;7.20;1.33;;;15.90;80.90;;;;;;5032151;28;20446;-70
2022/10/03 07:39:52;;;;;;;3.30;1.00;;;15.80;80.20;;;;;;5052079;28;20120;-73
2022/10/03 07:42:24;;;;;;;3.30;0.93;;;16.00;80.60;;;;;;5052838;28;20381;-72
2022/10/03 07:45:08;;;;;;;5.20;1.27;;;16.00;79.50;;;;;;5052630;28;20029;-73
2022/10/03 07:48:12;;;;;;;1.20;0.57;;;16.30;77.20;;;;;;5053236;28;20025;-72
2022/10/03 07:50:51;;;;;;;1.60;0.80;;;16.20;75.60;;;;;;5046908;28;20048;-72
2022/10/03 07:53:39;;;;;;;6.72;1.20;;;16.20;75.50;;;;;;5052038;28;20071;-72
2022/10/03 07:56:42;;;;;;;4.10;0.70;;;16.30;75.00;;;;;;5051820;28;20071;-72
2022/10/03 07:59:39;;;;;;;1.58;1.00;;;16.80;75.30;;;;;;5051605;28;20032;-71
2022/10/03 08:02:27;;;;;;;3.20;1.00;;;17.60;71.00;;;;;;5055290;28;20029;-71
2022/10/03 08:05:17;;;;;;;1.60;0.70;;;18.90;66.60;;;;;;5054727;28;20059;-71
2022/10/03 08:08:08;;;;;;;3.72;1.08;;;19.50;63.20;;;;;;5055235;28;20036;-71
2022/10/03 08:10:55;;;;;;;1.90;0.80;;;19.00;63.00;;;;;;5055642;28;20048;-70
2022/10/03 08:13:36;;;;;;;3.30;0.80;;;18.40;62.10;;;;;;5055495;28;20246;-71
2022/10/03 08:16:13;;;;;;;3.92;1.13;;;18.20;63.60;;;;;;5055179;28;20427;-70
2022/10/03 08:19:20;;;;;;;2.95;0.77;;;18.10;64.00;;;;;;5055361;28;20040;-70
2022/10/03 08:22:07;;;;;;;3.70;1.00;;;18.00;64.20;;;;;;5055326;28;20024;-71
2022/10/03 08:24:38;;;;;;;0.82;0.60;;;18.10;63.70;;;;;;5055373;28;20032;-71
2022/10/03 08:27:10;;;;;;;;;;;18.00;63.70;;;;;;5055605;28;20037;-71
2022/10/03 08:30:13;;;;;;;2.50;0.60;;;17.80;64.70;;;;;;5055293;28;19911;-71
2022/10/03 08:32:51;;;;;;;2.63;0.73;;;17.80;63.40;;;;;;5054774;28;20560;-71
2022/10/03 08:35:28;;;;;;;2.10;0.80;;;17.50;62.90;;;;;;5054903;28;20039;-70
2022/10/03 08:38:18;;;;;;;1.90;0.70;;;17.30;63.80;;;;;;5054695;28;20047;-72
2022/10/03 08:41:12;;;;;;;3.80;0.80;;;17.20;65.50;;;;;;5055188;28;20401;-71
2022/10/03 08:44:09;;;;;;;1.10;0.70;;;17.00;65.30;;;;;;5054797;28;20466;-70
2022/10/03 08:46:49;;;;;;;1.98;0.70;;;17.20;65.20;;;;;;5054857;28;20033;-71
2022/10/03 08:49:52;;;;;;;1.65;0.75;;;17.10;64.60;;;;;;5054486;28;20040;-71
2022/10/03 08:52:59;;;;;;;2.92;0.60;;;17.10;64.00;;;;;;5053139;28;20039;-72
2022/10/03 08:55:50;;;;;;;1.42;0.70;;;17.20;65.10;;;;;;5054006;28;20040;-71
2022/10/03 08:58:25;;;;;;;2.30;0.60;;;17.30;63.10;;;;;;5053872;28;20396;-70
2022/10/03 09:01:09;;;;;;;3.30;0.77;;;17.10;62.60;;;;;;5054406;28;20025;-70
2022/10/03 09:03:56;;;;;;;1.67;0.70;;;16.80;63.30;;;;;;5054399;28;20037;-71
2022/10/03 09:06:48;;;;;;;1.00;0.70;;;16.80;63.50;;;;;;5054589;28;20056;-70
2022/10/03 09:09:41;;;;;;;1.77;0.65;;;16.60;63.00;;;;;;5054150;28;20032;-70
2022/10/03 09:12:13;;;;;;;3.20;0.60;;;16.50;63.10;;;;;;5053238;28;20051;-70
2022/10/03 09:14:54;;;;;;;1.60;0.68;;;16.40;64.00;;;;;;5054502;28;20469;-70
2022/10/03 09:18:04;;;;;;;3.30;0.73;;;16.40;64.20;;;;;;5054157;28;20036;-71
2022/10/03 09:20:57;;;;;;;3.70;0.70;;;16.30;63.90;;;;;;5054457;28;20428;-70
2022/10/03 09:24:00;;;;;;;3.22;0.60;;;16.40;65.00;;;;;;5054555;28;20029;-70
2022/10/03 09:26:37;;;;;;;2.92;1.02;;;16.40;64.30;;;;;;5053917;28;20122;-70
2022/10/03 09:29:08;;;;;;;0.77;0.60;;;16.40;64.30;;;;;;5053527;28;20029;-70
2022/10/03 09:31:55;;;;;;;4.38;0.65;;;16.40;63.90;;;;;;5053773;28;20053;-70
2022/10/03 09:35:13;;;;;;;1.17;0.55;;;16.50;64.00;;;;;;5053649;28;20021;-70
2022/10/03 09:38:06;;;;;;;1.17;0.60;;;16.50;64.60;;;;;;5053706;28;20048;-71
2022/10/03 09:40:35;;;;;;;0.93;0.50;;;16.60;65.20;;;;;;5053994;28;20021;-70
2022/10/03 09:43:25;;;;;;;1.17;0.57;;;16.50;64.40;;;;;;5053485;28;20027;-70
2022/10/03 09:46:00;;;;;;;2.53;0.70;;;16.50;64.20;;;;;;5053779;28;20487;-70
2022/10/03 09:48:37;;;;;;;2.05;0.60;;;16.50;63.80;;;;;;5053853;28;20036;-71
2022/10/03 09:51:06;;;;;;;3.65;0.60;;;16.60;64.90;;;;;;5053426;28;20036;-70
2022/10/03 09:53:43;;;;;;;1.63;1.05;;;16.70;64.10;;;;;;5053983;28;20543;-72
2022/10/03 09:56:30;;;;;;;2.35;0.80;;;16.90;64.30;;;;;;5055310;28;20037;-72
2022/10/03 09:59:04;;;;;;;2.90;0.70;;;17.00;64.10;;;;;;5054743;28;20528;-71
2022/10/03 10:01:38;;;;;;;2.00;0.65;;;17.10;63.30;;;;;;5053716;28;20033;-72
2022/10/03 10:04:31;;;;;;;0.55;0.38;;;17.20;61.40;;;;;;5053528;28;20032;-72
2022/10/03 10:07:15;;;;;;;4.32;0.75;;;17.30;60.40;;;;;;5053487;28;20029;-71
2022/10/03 10:10:06;;;;;;;1.13;0.60;;;17.40;60.90;;;;;;5053458;28;20031;-70
2022/10/03 10:13:09;;;;;;;5.13;1.23;;;17.50;61.60;;;;;;5053431;28;20028;-71
2022/10/03 10:15:46;;;;;;;7.50;0.65;;;17.60;59.50;;;;;;5053293;28;20037;-71
2022/10/03 10:18:48;;;;;;;2.50;0.60;;;17.60;59.70;;;;;;5052857;28;20048;-70
2022/10/03 10:21:38;;;;;;;1.95;0.40;;;17.70;59.30;;;;;;5052716;28;20123;-70
2022/10/03 10:24:45;;;;;;;2.85;0.80;;;17.70;59.00;;;;;;5052271;28;20417;-70
2022/10/03 10:27:29;;;;;;;2.45;0.70;;;17.60;58.70;;;;;;5052540;28;20390;-70
2022/10/03 10:30:39;;;;;;;3.53;0.65;;;17.60;58.60;;;;;;5052616;28;20033;-70
2022/10/03 10:33:41;;;;;;;1.77;0.47;;;17.70;58.40;;;;;;5046796;28;20053;-72
2022/10/03 10:36:37;;;;;;;1.38;0.43;;;17.80;59.60;;;;;;5052817;28;20392;-69
2022/10/03 10:39:31;;;;;;;2.33;0.40;;;18.00;58.10;;;;;;5052679;28;20029;-71
2022/10/03 10:42:35;;;;;;;1.25;0.40;;;17.90;56.10;;;;;;5053117;28;20047;-70
2022/10/03 10:45:14;;;;;;;3.05;0.40;;;17.80;57.30;;;;;;5053207;28;20373;-69
2022/10/03 10:48:12;;;;;;;3.97;0.60;;;17.90;56.80;;;;;;5052941;28;20021;-70
2022/10/03 10:51:15;;;;;;;1.00;0.50;;;17.90;57.00;;;;;;5052701;28;20025;-70
2022/10/03 10:54:09;;;;;;;2.72;0.80;;;17.70;56.00;;;;;;5052639;28;20117;-70
2022/10/03 10:56:49;;;;;;;1.67;0.43;;;17.60;56.60;;;;;;5044324;28;20064;-70
2022/10/03 10:59:42;;;;;;;3.40;0.63;;;17.40;56.80;;;;;;5052135;28;20485;-70
2022/10/03 11:02:11;;;;;;;2.08;0.50;;;17.30;57.40;;;;;;5052001;28;20044;-70
2022/10/03 11:05:14;;;;;;;3.00;0.60;;;17.30;57.70;;;;;;5051723;28;20408;-70
2022/10/03 11:07:55;;;;;;;3.58;0.50;;;17.20;57.80;;;;;;5052245;28;20433;-70
2022/10/03 11:10:40;;;;;;;0.85;0.65;;;17.10;58.10;;;;;;5052089;28;20027;-71
2022/10/03 11:13:43;;;;;;;2.88;0.60;;;16.90;58.80;;;;;;5050929;28;20416;-71
2022/10/03 11:16:43;;;;;;;1.95;0.50;;;16.90;59.30;;;;;;5052061;28;20033;-70
2022/10/03 11:19:40;;;;;;;3.10;0.60;;;16.90;59.90;;;;;;5051982;28;20032;-71
2022/10/03 11:22:44;;;;;;;1.90;0.95;;;16.90;59.70;;;;;;5051646;28;20478;-72
2022/10/03 11:25:50;;;;;;;0.80;0.50;;;17.10;60.70;;;;;;5051582;28;20426;-71
2022/10/03 11:28:46;;;;;;;2.92;1.20;;;17.20;59.80;;;;;;5009780;28;20026;-70
2022/10/03 11:31:53;;;;;;;1.02;0.40;;;17.30;58.40;;;;;;5009661;28;20088;-71
2022/10/03 11:34:27;;;;;;;2.50;0.50;;;17.40;58.50;;;;;;5031043;28;20079;-71
2022/10/03 11:37:01;;;;;;;1.17;0.50;;;17.50;57.80;;;;;;5035986;28;20425;-70
2022/10/03 11:39:43;;;;;;;1.33;0.60;;;17.50;57.40;;;;;;5035908;28;20164;-71
2022/10/03 11:42:17;;;;;;;0.65;0.40;;;17.60;57.80;;;;;;5035938;28;20029;-71
2022/10/03 11:44:59;;;;;;;1.42;0.55;;;17.60;57.50;;;;;;5036271;28;20090;-70
2022/10/03 11:47:43;;;;;;;2.55;0.50;;;17.40;58.00;;;;;;5035753;28;20057;-70
2022/10/03 11:50:30;;;;;;;1.85;0.45;;;17.30;58.40;;;;;;5035630;28;20025;-71
2022/10/03 11:53:07;;;;;;;5.15;0.85;;;17.20;58.70;;;;;;5035880;28;20029;-70
2022/10/03 11:55:40;;;;;;;3.33;0.98;;;17.20;59.90;;;;;;5036092;28;20104;-70
2022/10/03 11:58:34;;;;;;;3.55;0.57;;;17.30;59.70;;;;;;5035543;28;20489;-70
2022/10/03 12:01:20;;;;;;;2.33;0.50;;;17.30;59.80;;;;;;5035989;28;20025;-70
2022/10/03 12:04:18;;;;;;;5.15;0.70;;;17.30;60.60;;;;;;5035519;28;20025;-70
2022/10/03 12:10:02;;;;;;;1.38;0.47;;;17.20;60.40;;;;;;5035493;28;20040;-71
2022/10/03 12:12:47;;;;;;;1.30;0.70;;;17.10;59.50;;;;;;5035136;28;20066;-71
2022/10/03 12:15:41;;;;;;;2.33;0.50;;;17.10;59.30;;;;;;5035185;28;20060;-70
2022/10/03 12:18:20;;;;;;;0.88;0.60;;;17.10;60.10;;;;;;5035509;28;20053;-70
2022/10/03 12:21:05;;;;;;;2.25;0.30;;;17.00;61.10;;;;;;5035619;28;20033;-71
2022/10/03 12:23:40;;;;;;;0.65;0.50;;;16.90;61.90;;;;;;5035003;28;20079;-71
2022/10/03 12:26:16;;;;;;;1.25;0.38;;;16.80;62.90;;;;;;5035376;28;20086;-71
2022/10/03 12:28:47;;;;;;;2.85;0.73;;;16.70;62.90;;;;;;5035477;28;20116;-71
2022/10/03 12:31:23;;;;;;;0.80;0.63;;;16.70;63.20;;;;;;5042185;28;20045;-71
2022/10/03 12:34:17;;;;;;;3.35;0.60;;;16.60;62.80;;;;;;5055258;28;20029;-69
2022/10/03 12:37:06;;;;;;;1.60;0.43;;;16.50;61.40;;;;;;5055017;28;20036;-70
2022/10/03 12:39:44;;;;;;;3.05;0.63;;;16.50;63.30;;;;;;5054163;28;20029;-71
2022/10/03 12:42:33;;;;;;;2.85;0.50;;;16.50;63.40;;;;;;5054994;28;20021;-70
2022/10/03 12:45:24;;;;;;;1.60;0.50;;;16.50;62.80;;;;;;5055085;28;20082;-70
2022/10/03 12:48:18;;;;;;;2.70;0.75;;;16.50;62.60;;;;;;5054239;28;20163;-70
2022/10/03 12:50:56;;;;;;;5.10;0.52;;;16.50;62.90;;;;;;5054805;28;20024;-70
2022/10/03 12:53:25;;;;;;;5.55;0.65;;;16.50;63.70;;;;;;5054457;28;20017;-71
2022/10/03 12:56:23;;;;;;;1.00;0.50;;;16.50;63.80;;;;;;5054904;28;20033;-71
2022/10/03 12:59:34;;;;;;;3.85;0.70;;;16.50;63.00;;;;;;5053287;28;20059;-70
2022/10/03 13:02:24;;;;;;;4.85;0.52;;;16.50;63.50;;;;;;5053901;28;20075;-70
2022/10/03 13:04:59;;;;;;;1.40;0.90;;;16.50;62.70;;;;;;5054718;28;20037;-71
2022/10/03 13:07:27;;;;;;;1.98;0.70;;;16.50;62.20;;;;;;5053833;28;20025;-71
2022/10/03 13:10:01;;;;;;;1.10;0.60;;;16.50;62.40;;;;;;5054377;28;20112;-71
2022/10/03 13:12:33;;;;;;;1.42;0.85;;;16.60;63.10;;;;;;5044369;28;20029;-70
2022/10/03 13:15:32;;;;;;;1.60;0.63;;;16.60;62.60;;;;;;5034304;28;20037;-70
2022/10/03 13:18:12;;;;;;;4.32;0.65;;;16.60;61.70;;;;;;5034111;28;20041;-69
2022/10/03 13:20:42;;;;;;;1.58;0.68;;;16.70;62.10;;;;;;5034102;28;20025;-70
2022/10/03 13:23:23;;;;;;;4.13;0.40;;;16.60;61.20;;;;;;5034159;28;20032;-70
2022/10/03 13:25:58;;;;;;;1.48;0.47;;;16.60;61.20;;;;;;5034141;28;20490;-70
2022/10/03 13:28:48;;;;;;;0.63;0.47;;;16.60;60.30;;;;;;5033855;28;20041;-69
2022/10/03 13:31:25;;;;;;;1.35;0.47;;;16.60;59.10;;;;;;5041372;28;20055;-70
2022/10/03 13:33:56;;;;;;;1.15;0.57;;;16.50;59.50;;;;;;5053777;28;20043;-70
2022/10/03 13:36:34;;;;;;;2.50;0.60;;;16.50;59.40;;;;;;5053195;28;20048;-71
2022/10/03 13:39:04;;;;;;;0.65;0.50;;;16.50;60.00;;;;;;5053739;28;20374;-70
2022/10/03 13:41:35;;;;;;;1.13;0.50;;;16.50;60.00;;;;;;5053341;28;20029;-71
2022/10/03 13:44:03;;;;;;;0.73;0.40;;;16.60;60.50;;;;;;5053552;28;20033;-71
2022/10/03 13:46:47;;;;;;;1.15;0.75;;;16.50;61.30;;;;;;5053245;28;20028;-71
2022/10/03 13:49:22;;;;;;;1.65;0.68;;;16.50;61.70;;;;;;5053681;28;20075;-71
2022/10/03 13:51:49;;;;;;;1.38;0.60;;;16.50;62.30;;;;;;5053260;28;20037;-69
2022/10/03 13:54:24;;;;;;;0.55;0.50;;;16.50;62.30;;;;;;5053945;28;20199;-69
2022/10/03 13:56:56;;;;;;;1.38;0.50;;;16.50;61.60;;;;;;5054283;28;20462;-69
2022/10/03 13:59:50;;;;;;;2.67;0.45;;;16.50;62.50;;;;;;5054891;28;20468;-69
2022/10/03 14:02:33;;;;;;;1.30;0.52;;;16.40;63.70;;;;;;5055713;28;20047;-70
2022/10/03 14:05:17;;;;;;;0.73;0.50;;;16.20;64.10;;;;;;5056104;28;20366;-69
2022/10/03 14:07:53;;;;;;;3.80;0.40;;;16.20;64.60;;;;;;5053981;28;20053;-70
2022/10/03 14:10:36;;;;;;;0.95;0.45;;;16.10;64.50;;;;;;5053264;28;20462;-71
2022/10/03 14:13:22;;;;;;;2.88;0.70;;;16.10;65.00;;;;;;5053501;28;20032;-71
2022/10/03 14:15:54;;;;;;;1.63;0.60;;;16.00;64.10;;;;;;5053676;28;20033;-70
2022/10/03 14:18:43;;;;;;;1.02;0.40;;;15.90;64.50;;;;;;5052854;28;20027;-71
2022/10/03 14:21:23;;;;;;;1.00;0.50;;;15.90;65.50;;;;;;5053503;28;20083;-70
2022/10/03 14:24:09;;;;;;;1.00;0.57;;;15.80;65.80;;;;;;5053564;28;20025;-71
2022/10/03 14:26:51;;;;;;;0.63;0.60;;;15.90;66.70;;;;;;5052871;28;20112;-71
2022/10/03 14:29:30;;;;;;;0.60;0.60;;;15.90;67.40;;;;;;5053041;28;20035;-71
2022/10/03 14:32:11;;;;;;;0.77;0.57;;;15.90;68.20;;;;;;5052909;28;20049;-70
2022/10/03 14:35:14;;;;;;;2.47;0.70;;;15.90;68.30;;;;;;5052440;28;20045;-71